Date,TemperatureHighF,TemperatureAvgF,TemperatureLowF,DewpointHighF,DewpointAvgF,DewpointLowF,HumidityHigh,HumidityAvg,HumidityLow,PressureMaxIn,PressureMinIn,WindSpeedMaxMPH,WindSpeedAvgMPH,GustSpeedMaxMPH,PrecipitationSumIn
2013-1-1,41.0,36.8,27.7,25.4,20.5,10.6,60,51,41,0.00,40.00,6,2,12,0.08
2013-1-2,35.0,28.5,23.4,13.5,10.8,7.7,47,44,38,0.00,40.00,6,2,12,0.00
2013-1-3,33.6,28.9,25.0,15.6,13.2,11.5,54,48,42,0.00,40.00,5,1,9,0.00
2013-1-4,38.9,33.3,26.3,19.3,16.8,13.2,54,50,43,0.00,40.00,7,2,15,0.00
2013-1-5,43.3,35.3,30.7,20.0,17.1,14.2,52,46,38,0.00,40.00,7,2,14,0.00
2013-1-6,46.9,39.2,33.3,28.7,23.4,17.5,66,53,43,0.00,40.00,5,1,9,0.00
2013-1-7,45.8,37.9,29.7,26.2,20.2,15.7,65,49,36,0.00,40.00,8,1,12,0.00
2013-1-8,48.2,35.8,26.2,30.4,22.2,15.7,65,56,49,0.00,40.00,4,1,7,0.00
2013-1-9,48.2,40.0,30.2,34.4,28.4,21.0,70,63,57,0.00,40.00,3,1,10,0.00
2013-1-10,48.8,42.0,36.0,29.5,22.8,19.1,62,47,35,0.00,40.00,8,2,13,0.00
2013-1-11,46.6,42.1,35.4,40.0,28.8,18.7,81,60,49,0.00,40.00,4,1,6,0.54
2013-1-12,49.8,46.9,43.0,43.1,41.5,38.5,87,81,77,0.00,40.00,2,0,5,0.04
2013-1-13,51.0,47.5,45.0,45.9,43.5,41.6,90,86,81,0.00,40.00,3,0,6,0.00
2013-1-14,58.5,51.0,41.0,53.2,41.4,25.4,96,72,39,0.00,40.00,5,1,10,0.08
2013-1-15,41.0,38.8,36.5,32.0,26.1,22.8,74,60,50,0.00,40.00,3,1,6,0.13
2013-1-16,36.5,35.0,33.6,31.8,29.3,25.0,88,80,63,0.00,40.00,5,1,8,0.70
2013-1-17,45.2,39.9,36.6,32.1,26.8,21.0,82,60,44,0.00,40.00,5,1,10,0.00
2013-1-18,36.9,29.2,25.9,21.3,9.5,-99.9,53,42,31,0.00,40.00,6,-156,15,0.00
2013-1-19,52.4,38.5,25.2,29.6,20.1,-99.9,54,47,39,0.00,40.00,5,-402,8,0.00
2013-1-20,55.7,40.6,30.3,31.6,16.3,-99.9,61,41,27,0.00,40.00,11,-740,15,0.00
2013-1-21,35.0,29.3,23.2,14.1,10.5,6.3,51,42,37,0.00,40.00,4,-499,5,0.00
2013-1-22,27.0,20.2,13.2,9.5,0.5,-6.6,45,38,30,0.00,40.00,9,-203,21,0.00
2013-1-23,21.2,14.6,10.0,-0.5,-5.4,-9.5,44,36,33,0.00,40.00,8,2,14,0.00
2013-1-24,24.4,17.3,10.8,1.3,-2.1,-5.2,48,38,29,0.00,40.00,9,3,18,0.00
2013-1-25,26.7,18.7,12.0,8.1,1.4,-6.7,57,42,36,0.00,40.00,7,2,16,0.00
2013-1-26,28.0,20.6,13.6,8.8,5.4,3.0,64,48,35,0.00,40.00,8,2,13,0.00
2013-1-27,35.6,25.2,15.6,11.9,6.9,1.9,51,43,33,0.00,40.00,6,-90,14,0.00
2013-1-28,35.4,31.2,23.8,27.8,18.8,7.8,74,58,45,0.00,40.00,3,0,6,0.13
2013-1-29,55.9,43.7,34.7,40.7,35.1,26.9,79,72,56,0.00,40.00,5,-260,9,0.04
2013-1-30,65.8,52.5,42.1,57.4,46.7,37.3,86,81,72,0.00,40.00,5,-306,11,0.04
2013-1-31,61.3,45.5,28.9,58.1,29.4,10.8,90,55,31,0.00,40.00,13,-245,24,0.95
2013-2-1,32.7,27.9,22.8,14.1,10.2,4.9,56,44,30,0.00,40.00,9,4,17,0.00
2013-2-2,32.8,24.7,18.0,13.9,8.6,3.3,58,46,35,0.00,40.00,5,-6,11,0.00
2013-2-3,33.9,27.6,23.9,18.9,15.4,11.9,65,57,47,0.00,40.00,4,-62,7,0.00
2013-2-4,32.5,26.8,21.9,15.4,10.3,8.2,60,46,34,0.00,40.00,8,3,20,0.00
2013-2-5,33.0,30.9,27.9,25.3,20.0,11.7,74,62,46,0.00,40.00,3,0,6,0.00
2013-2-6,40.1,33.3,27.0,25.8,19.2,9.5,77,57,39,0.00,40.00,8,2,13,0.00
2013-2-7,36.1,30.0,23.0,17.1,11.4,6.7,51,43,40,0.00,40.00,4,1,6,0.00
2013-2-8,35.2,33.6,28.8,29.2,25.2,17.1,88,72,51,0.00,40.00,7,2,13,0.00
2013-2-9,34.0,28.8,20.7,27.8,15.3,5.6,89,56,34,0.00,40.00,7,-180,14,0.08
2013-2-10,36.9,26.1,14.4,17.9,10.7,2.5,56,49,41,0.00,40.00,4,-20,9,0.17
2013-2-11,43.0,37.2,30.6,40.5,29.4,17.7,91,73,54,0.00,40.00,3,0,6,0.46
2013-2-12,46.0,40.4,34.0,36.1,24.1,18.6,87,53,39,0.00,40.00,8,3,20,0.00
2013-2-13,45.3,35.8,26.9,28.1,22.0,16.9,74,56,44,0.00,40.00,3,1,6,0.00
2013-2-14,47.1,38.2,32.0,30.0,25.6,21.4,79,61,42,0.00,40.00,5,1,8,0.04
2013-2-15,55.2,42.1,30.9,35.6,27.9,21.3,73,58,39,0.00,40.00,6,1,11,0.00
2013-2-16,42.8,37.1,31.3,30.8,23.0,11.7,75,57,41,0.00,40.00,4,2,9,0.04
2013-2-17,33.4,27.3,18.0,12.8,5.3,-2.0,42,35,28,0.00,40.00,12,6,24,0.00
2013-2-18,35.8,25.8,16.7,11.6,5.2,-1.4,44,38,30,0.00,40.00,8,3,17,0.00
2013-2-19,48.9,37.5,25.5,36.4,22.8,9.2,76,54,41,0.00,40.00,7,1,13,0.25
2013-2-20,37.9,31.1,25.0,23.2,12.0,7.0,55,42,34,0.00,40.00,10,5,22,0.00
2013-2-21,35.2,28.5,23.5,12.8,10.1,6.8,50,43,37,0.00,40.00,9,4,20,0.00
2013-2-22,41.0,32.5,23.6,26.1,17.4,10.0,61,52,43,0.00,40.00,4,1,8,0.00
2013-2-23,43.9,40.0,37.8,38.3,33.5,26.3,84,78,62,0.00,40.00,5,1,10,0.46
2013-2-24,49.3,38.5,33.1,35.7,23.9,-99.9,88,63,41,0.00,40.00,8,3,17,0.00
2013-2-25,46.8,38.3,29.5,25.6,21.4,-99.9,63,51,40,0.00,40.00,5,1,10,0.00
2013-2-26,48.4,39.1,30.6,31.2,25.6,20.0,78,58,48,0.00,40.00,9,3,17,0.17
2013-2-27,49.6,43.1,37.4,44.2,37.1,31.0,89,80,66,0.00,40.00,6,2,20,1.08
2013-2-28,51.0,43.8,37.3,36.8,30.8,24.3,77,61,45,0.00,40.00,6,2,10,0.00
2013-3-1,48.0,40.0,34.0,27.0,24.5,20.9,71,55,39,0.00,40.00,6,3,13,0.00
2013-3-2,42.9,36.5,31.5,24.9,20.2,17.9,72,51,41,0.00,40.00,6,3,12,0.00
2013-3-3,39.8,33.2,28.8,21.1,15.9,12.8,61,47,39,0.00,40.00,8,4,17,0.00
2013-3-4,42.0,34.2,27.2,17.8,15.3,12.0,55,45,36,0.00,40.00,8,5,20,0.00
2013-3-5,49.5,39.1,30.9,24.9,20.2,15.8,54,46,37,0.00,40.00,6,2,13,0.00
2013-3-6,43.9,40.4,37.8,32.1,26.6,22.6,69,58,50,0.00,40.00,10,4,26,0.00
2013-3-7,41.5,37.9,34.2,32.0,26.6,21.6,83,64,52,0.00,40.00,5,2,13,0.08
2013-3-8,40.4,36.0,32.6,32.9,29.7,25.9,87,78,63,0.00,40.00,4,1,9,0.33
2013-3-9,56.7,42.3,31.9,25.9,21.9,16.4,65,46,26,0.00,40.00,5,1,10,0.00
2013-3-10,50.1,39.4,30.7,33.0,26.3,16.8,69,59,46,0.00,40.00,5,2,8,0.00
2013-3-11,58.1,47.0,36.9,42.8,37.6,27.9,80,70,55,0.00,40.00,4,2,10,0.00
2013-3-12,59.2,52.3,44.3,55.5,46.5,34.3,89,81,61,0.00,40.00,7,2,15,0.79
2013-3-13,53.0,43.2,36.5,34.3,27.1,-99.9,76,55,30,0.00,40.00,9,2,14,0.00
2013-3-14,42.9,35.5,30.7,20.5,9.9,-99.9,51,35,23,0.00,40.00,10,5,23,0.00
2013-3-15,48.6,39.2,28.3,25.8,17.1,6.0,46,39,31,0.00,40.00,8,3,21,0.00
2013-3-16,43.5,37.4,33.8,25.5,21.2,16.5,67,52,40,0.00,40.00,3,1,6,0.04
2013-3-17,40.0,34.6,28.9,25.0,16.1,11.1,68,47,32,0.00,40.00,6,2,13,0.00
2013-3-18,39.4,32.8,26.6,26.9,16.6,8.4,74,50,39,0.00,40.00,7,2,13,0.00
2013-3-19,48.3,39.6,34.4,34.5,29.8,17.5,84,69,42,0.00,40.00,6,2,11,0.83
2013-3-20,48.2,38.9,30.0,20.5,16.4,14.4,52,40,29,0.00,40.00,9,3,18,0.00
2013-3-21,42.2,35.9,30.7,22.5,14.4,7.6,64,42,29,0.00,40.00,6,2,12,0.00
2013-3-22,43.8,34.7,26.1,16.8,13.2,8.7,49,40,31,0.00,40.00,8,3,17,0.00
2013-3-23,47.8,38.8,31.1,20.0,15.8,12.8,50,39,28,0.00,40.00,9,4,19,0.00
2013-3-24,50.2,39.8,28.4,21.9,17.2,11.9,46,39,31,0.00,40.00,6,2,11,0.00
2013-3-25,40.9,38.7,36.1,31.2,24.9,18.6,76,58,43,0.00,40.00,8,2,17,0.12
2013-3-26,54.3,43.2,33.4,29.6,25.4,20.8,72,52,30,0.00,40.00,6,2,12,0.00
2013-3-27,54.3,43.8,34.5,25.9,22.4,18.0,54,43,26,0.00,40.00,8,4,15,0.00
2013-3-28,52.9,44.1,35.6,28.3,25.1,21.8,60,48,37,0.00,40.00,7,3,13,0.00
2013-3-29,57.4,45.2,33.6,28.5,23.5,19.7,58,43,28,0.00,40.00,6,2,15,0.00
2013-3-30,60.9,46.4,33.8,28.0,21.2,15.7,56,39,22,0.00,40.00,6,1,12,0.00
2013-3-31,58.9,46.2,34.5,39.6,27.4,15.5,76,49,35,0.00,40.00,7,2,12,0.13
2013-4-1,64.8,49.6,37.9,44.8,33.4,9.7,77,56,29,0.00,40.00,9,3,17,0.00
2013-4-2,46.6,38.1,30.2,15.2,11.4,8.4,42,33,22,0.00,40.00,10,4,20,0.00
2013-4-3,49.6,38.5,28.7,16.4,9.9,6.0,40,30,21,0.00,40.00,8,4,18,0.00
2013-4-4,57.2,42.4,29.3,26.0,17.1,8.0,41,35,28,0.00,40.00,5,2,10,0.00
2013-4-5,64.2,49.9,40.8,27.1,20.2,12.9,48,33,16,0.00,40.00,8,2,15,0.00
2013-4-6,57.6,43.9,34.7,19.0,14.9,10.2,43,32,18,0.00,40.00,6,3,13,0.00
2013-4-7,67.7,51.3,37.6,37.6,27.9,16.7,50,41,29,0.00,40.00,5,2,10,0.00
2013-4-8,75.5,52.8,46.4,43.9,24.7,-99.9,62,43,32,0.00,40.00,6,2,10,0.00
2013-4-9,84.8,66.0,51.3,51.5,36.4,-99.9,71,40,19,0.00,40.00,9,2,21,0.00
2013-4-10,78.4,65.1,57.1,51.0,43.6,35.6,78,47,34,0.00,40.00,6,2,10,0.41
2013-4-11,64.5,57.5,49.5,55.0,46.8,37.7,84,68,52,0.00,40.00,7,2,11,0.04
2013-4-12,49.8,45.1,43.2,39.4,38.0,35.5,84,76,59,0.00,40.00,8,3,18,0.62
2013-4-13,62.0,48.2,38.8,42.0,31.3,-99.9,84,60,37,0.00,40.00,5,1,10,0.04
2013-4-14,61.1,48.8,44.8,37.1,21.0,-99.9,68,41,26,0.00,40.00,9,2,20,0.00
2013-4-15,59.8,51.6,44.2,34.3,28.3,22.5,58,41,35,0.00,40.00,5,2,10,0.00
2013-4-16,69.7,57.2,47.1,51.5,42.7,33.8,67,59,49,0.00,40.00,6,2,10,0.00
2013-4-17,58.4,55.8,53.5,34.4,34.0,33.3,47,44,40,0.00,40.00,0,0,0,0.00
2013-4-18,58.5,53.6,48.7,47.6,39.4,32.6,78,59,47,0.00,40.00,5,2,8,0.00
2013-4-19,80.8,67.0,54.3,63.6,56.7,47.6,84,70,53,0.00,40.00,5,1,11,0.16
2013-4-20,63.6,54.8,47.3,56.3,33.6,21.6,77,47,26,0.00,40.00,8,4,19,0.13
2013-4-21,60.8,46.6,36.0,27.2,20.9,15.7,45,36,26,0.00,40.00,5,2,12,0.00
2013-4-22,59.3,48.0,37.0,34.2,27.3,21.6,56,45,34,0.00,40.00,6,2,13,0.00
2013-4-23,55.3,46.9,40.8,38.5,31.7,25.3,66,56,47,0.00,40.00,5,-3,7,0.00
2013-4-24,78.1,57.6,40.5,51.8,41.9,31.4,73,57,39,0.00,40.00,4,-3,9,0.00
2013-4-25,70.5,57.5,47.1,49.0,29.5,22.5,67,36,22,0.00,40.00,9,-283,15,0.00
2013-4-26,70.2,55.8,42.3,34.1,27.1,21.6,50,35,17,0.00,40.00,6,2,11,0.00
2013-4-27,75.1,58.2,42.7,33.7,27.1,21.2,44,31,22,0.00,40.00,4,1,10,0.00
2013-4-28,73.5,58.6,44.1,41.4,30.7,23.3,48,35,25,0.00,40.00,5,-28,8,0.00
2013-4-29,57.2,55.0,53.4,46.3,42.1,31.8,72,62,38,0.00,40.00,3,1,6,0.17
2013-4-30,69.4,58.3,47.5,46.3,38.9,26.2,75,52,25,0.00,40.00,4,1,8,0.00
2013-5-1,69.1,55.6,41.5,41.0,33.4,25.6,57,44,29,0.00,40.00,4,1,8,0.00
2013-5-2,77.1,59.3,43.5,45.9,39.6,34.0,72,50,31,0.00,40.00,3,1,6,0.00
2013-5-3,69.0,57.8,48.1,40.7,36.2,32.7,61,45,34,0.00,40.00,4,1,7,0.00
2013-5-4,70.2,55.8,44.1,45.4,38.4,33.6,72,54,36,0.00,40.00,4,1,7,0.00
2013-5-5,65.5,53.7,44.5,42.6,37.1,33.3,66,54,42,0.00,40.00,3,1,8,0.00
2013-5-6,72.2,57.2,43.8,50.3,42.7,34.7,72,59,45,0.00,40.00,3,1,6,0.00
2013-5-7,77.0,61.4,48.0,56.7,49.2,40.3,78,65,48,0.00,40.00,3,1,6,0.00
2013-5-8,71.5,62.7,54.2,61.4,55.5,48.6,88,77,64,0.00,40.00,3,1,6,1.37
2013-5-9,73.9,60.9,53.4,58.2,53.4,48.1,90,77,54,0.00,40.00,4,0,7,0.58
2013-5-10,84.0,67.5,53.6,59.2,54.3,49.7,88,65,38,0.00,40.00,4,1,7,0.00
2013-5-11,75.4,66.0,62.7,64.3,59.1,52.9,88,79,60,0.00,40.00,7,0,15,0.54
2013-5-12,69.4,62.1,51.5,59.2,41.2,24.5,88,51,23,0.00,40.00,8,3,20,0.04
2013-5-13,60.8,51.3,43.0,29.8,25.6,21.8,49,37,25,0.00,40.00,6,2,13,0.00
2013-5-14,67.8,52.6,40.6,30.2,26.2,21.0,56,38,18,0.00,40.00,5,2,10,0.00
2013-5-15,79.2,60.8,45.9,54.1,40.5,23.4,61,47,37,0.00,40.00,3,1,6,0.00
2013-5-16,85.8,70.5,57.9,57.0,52.0,45.0,73,54,35,0.00,40.00,5,1,12,0.00
2013-5-17,79.3,60.7,58.3,44.7,26.1,-99.9,47,32,21,0.00,40.00,5,2,9,0.00
2013-5-18,65.0,56.4,55.4,49.1,35.5,-99.9,69,53,40,0.00,40.00,1,0,3,0.00
2013-5-19,59.0,58.0,56.4,55.0,52.5,48.1,89,82,67,0.00,40.00,2,-4,6,0.58
2013-5-20,84.3,69.5,58.3,67.1,60.8,55.0,91,76,53,0.00,40.00,4,0,7,0.00
2013-5-21,91.3,76.5,63.7,70.9,64.4,59.2,88,68,47,0.00,40.00,4,1,8,0.00
2013-5-22,85.8,73.4,64.2,69.4,62.9,56.7,81,70,57,0.00,40.00,2,0,4,0.00
2013-5-23,84.0,73.7,68.4,68.9,65.1,61.7,84,75,57,0.00,40.00,6,0,11,0.96
2013-5-24,68.4,57.1,47.3,63.7,50.6,37.9,89,79,62,0.00,40.00,6,2,14,0.46
2013-5-25,59.2,51.7,46.2,42.7,37.5,32.0,82,60,39,0.00,40.00,8,3,20,0.04
2013-5-26,71.6,58.7,47.3,36.0,32.2,27.0,58,39,22,0.00,40.00,8,3,17,0.00
2013-5-27,79.9,62.3,45.1,41.7,35.0,28.4,53,38,22,0.00,40.00,5,1,10,0.00
2013-5-28,67.6,59.4,52.6,54.1,45.6,35.8,82,62,41,0.00,40.00,2,0,4,0.42
2013-5-29,92.0,72.3,59.5,70.1,60.4,54.1,88,69,43,0.00,40.00,4,0,8,0.00
2013-5-30,96.6,82.2,69.4,66.3,60.8,56.0,75,51,29,0.00,40.00,5,1,9,0.00
2013-5-31,97.9,83.4,70.3,68.9,60.4,53.5,68,48,29,0.00,40.00,4,0,6,0.00
2013-6-1,96.4,81.3,68.7,67.3,60.7,-99.9,71,52,34,0.00,40.00,4,1,7,0.00
2013-6-2,92.2,79.3,71.7,67.3,59.8,-99.9,70,55,39,0.00,40.00,4,1,15,0.04
2013-6-3,83.6,73.5,68.7,67.8,63.4,50.3,83,71,52,0.00,40.00,2,0,5,0.25
2013-6-4,81.3,67.9,57.3,50.2,40.9,36.6,52,39,22,0.00,40.00,5,2,10,0.00
2013-6-5,78.0,66.1,53.3,47.1,41.2,33.2,63,41,31,0.00,40.00,2,0,5,0.00
2013-6-6,73.9,64.2,57.2,56.2,52.1,46.3,81,66,44,0.00,40.00,1,0,4,0.16
2013-6-7,64.6,62.1,60.6,61.3,58.3,55.2,92,87,80,0.00,40.00,0,0,6,4.11
2013-6-8,80.6,68.6,57.9,63.0,59.1,54.8,92,73,48,0.00,40.00,4,1,10,0.04
2013-6-9,86.6,72.6,59.4,58.6,55.8,51.9,83,58,33,0.00,40.00,4,1,9,0.00
2013-6-10,70.2,67.5,65.3,63.9,60.3,54.7,91,78,61,0.00,40.00,0,0,1,1.08
2013-6-11,84.3,74.1,66.6,67.7,63.1,54.7,93,71,47,0.00,40.00,6,2,13,0.04
2013-6-12,84.3,73.2,65.5,56.7,51.0,46.5,67,47,30,0.00,40.00,6,2,13,0.00
2013-6-13,68.0,63.8,58.1,59.9,54.8,47.7,87,73,53,0.00,40.00,2,0,7,0.70
2013-6-14,79.1,62.6,55.0,57.3,52.6,48.9,86,71,46,0.00,40.00,2,0,6,0.37
2013-6-15,85.4,71.2,58.5,56.5,51.9,47.5,80,54,29,0.00,40.00,5,1,10,0.00
2013-6-16,85.6,72.3,59.8,59.2,54.4,47.6,69,55,39,0.00,40.00,5,1,13,0.00
2013-6-17,89.2,76.3,65.5,66.5,60.4,56.6,79,60,38,0.00,40.00,3,0,8,0.00
2013-6-18,86.8,71.5,63.9,68.5,61.0,57.5,84,70,51,0.00,40.00,1,0,3,0.33
2013-6-19,84.1,70.2,58.8,60.1,51.6,43.7,86,56,25,0.00,40.00,2,0,8,0.00
2013-6-20,86.2,71.1,56.7,57.7,50.9,45.4,71,50,34,0.00,40.00,3,0,8,0.00
2013-6-21,88.0,73.7,59.0,56.3,49.6,42.4,59,44,31,0.00,40.00,2,0,7,0.00
2013-6-22,90.6,74.7,60.3,61.3,53.4,44.8,62,48,37,0.00,40.00,2,0,7,0.00
2013-6-23,93.5,76.8,65.3,69.9,62.0,52.6,80,61,41,0.00,40.00,3,0,8,0.29
2013-6-24,96.0,80.4,71.4,72.9,65.6,56.1,87,64,37,0.00,40.00,4,0,8,0.00
2013-6-25,95.3,79.4,68.5,71.1,64.4,58.6,76,62,38,0.00,40.00,6,0,12,0.17
2013-6-26,91.4,79.1,71.2,68.4,64.4,61.5,80,62,42,0.00,40.00,4,1,8,0.00
2013-6-27,93.0,80.2,72.0,71.6,67.3,64.3,80,66,46,0.00,40.00,1,0,4,0.00
2013-6-28,91.7,78.7,71.2,70.7,66.5,60.6,87,68,43,0.00,40.00,4,0,9,0.37
2013-6-29,92.5,79.1,68.2,68.3,63.6,60.3,79,61,39,0.00,40.00,3,0,6,0.00
2013-6-30,87.3,77.6,71.1,73.4,68.3,64.2,82,73,62,0.00,40.00,1,0,3,0.00
2013-7-1,79.1,75.3,72.7,73.9,70.2,67.6,88,84,80,0.00,40.00,1,0,4,1.45
2013-7-2,88.6,77.9,72.5,76.3,71.1,68.0,91,80,61,0.00,40.00,2,0,6,0.04
2013-7-3,91.1,78.4,71.2,76.0,70.6,66.7,88,77,58,0.00,40.00,2,0,6,0.04
2013-7-4,94.7,83.1,74.8,74.6,71.0,66.0,90,69,45,0.00,40.00,3,0,9,0.00
2013-7-5,97.5,84.6,73.6,73.2,68.4,64.2,82,60,40,0.00,40.00,3,0,8,0.00
2013-7-6,97.3,85.0,75.6,72.1,67.5,64.6,76,58,38,0.00,40.00,5,1,10,0.00
2013-7-7,98.9,86.3,76.8,72.6,67.7,61.2,71,55,37,0.00,40.00,6,1,10,0.00
2013-7-8,93.9,80.6,71.4,68.4,63.2,58.8,74,57,39,0.00,40.00,3,1,8,0.00
2013-7-9,93.3,80.6,70.7,69.8,64.3,59.5,75,59,41,0.00,40.00,3,0,8,0.00
2013-7-10,91.7,81.2,73.4,73.4,68.4,65.0,79,66,46,0.00,40.00,3,0,8,0.00
2013-7-11,90.9,80.9,74.8,69.3,65.3,57.5,74,60,40,0.00,40.00,4,0,7,0.00
2013-7-12,81.0,74.2,69.1,65.9,61.4,57.0,84,65,54,0.00,40.00,1,0,4,0.17
2013-7-13,82.2,74.2,68.4,74.9,69.7,64.2,90,86,77,0.00,40.00,1,0,2,0.29
2013-7-14,95.9,82.9,73.8,74.5,70.7,64.2,92,70,42,0.00,40.00,3,0,7,0.00
2013-7-15,99.7,85.9,74.1,71.6,66.9,63.3,76,55,33,0.00,40.00,4,1,7,0.00
2013-7-16,99.4,86.3,75.2,66.0,62.6,58.1,67,48,28,0.00,40.00,3,0,9,0.00
2013-7-17,100.9,87.4,76.1,69.3,64.5,60.7,68,48,29,0.00,40.00,3,0,6,0.00
2013-7-18,102.4,88.9,77.5,72.0,66.4,63.2,67,49,30,0.00,40.00,3,0,8,0.00
2013-7-19,100.5,89.4,79.7,76.3,70.6,66.3,72,55,39,0.00,40.00,3,0,7,0.00
2013-7-20,96.4,84.3,76.1,71.4,68.0,63.8,76,59,39,0.00,40.00,4,0,12,0.08
2013-7-21,91.8,80.8,74.3,68.9,64.3,59.1,80,59,41,0.00,40.00,1,0,3,0.00
2013-7-22,90.1,79.4,73.9,71.8,67.7,61.4,86,68,52,0.00,40.00,0,0,4,0.17
2013-7-23,90.4,79.9,72.5,72.6,69.7,64.6,89,73,51,0.00,40.00,3,0,8,0.29
2013-7-24,84.3,76.8,68.3,65.1,59.9,49.0,79,58,39,0.00,40.00,3,1,10,0.00
2013-7-25,69.0,67.0,64.6,54.3,49.7,44.6,64,54,48,0.00,40.00,2,0,8,0.00
2013-7-26,87.8,74.4,66.4,60.2,56.0,51.5,68,54,35,0.00,40.00,3,0,6,0.00
2013-7-27,88.2,74.8,64.1,65.8,59.4,55.6,80,60,39,0.00,40.00,3,0,6,0.00
2013-7-28,86.8,73.6,67.5,69.4,64.1,58.1,86,73,54,0.00,40.00,1,0,6,0.71
2013-7-29,87.4,75.6,67.3,66.8,61.0,48.8,91,65,30,0.00,40.00,3,0,9,0.00
2013-7-30,86.5,73.2,63.0,56.2,51.4,48.6,64,48,31,0.00,40.00,3,0,13,0.00
2013-7-31,85.8,74.2,63.0,58.1,54.3,51.3,68,51,33,0.00,40.00,2,0,5,0.00
2013-8-1,73.6,70.0,67.7,66.6,61.4,56.3,89,75,60,0.00,40.00,1,0,5,0.91
2013-8-2,87.9,74.8,64.8,66.6,61.4,56.3,91,66,39,0.00,40.00,3,-8,10,0.00
2013-8-3,81.2,71.8,68.1,64.6,59.8,56.3,75,66,52,0.00,40.00,3,0,6,0.00
2013-8-4,82.2,71.8,61.9,59.8,53.5,45.5,78,55,33,0.00,40.00,5,-36,11,0.00
2013-8-5,83.0,69.4,60.3,48.8,45.7,41.1,63,44,28,0.00,40.00,4,1,10,0.00
2013-8-6,84.8,72.1,60.6,55.0,51.4,46.4,68,50,34,0.00,40.00,1,-160,4,0.00
2013-8-7,83.1,72.9,67.5,66.2,60.6,55.0,74,66,55,0.00,40.00,1,-70,5,0.00
2013-8-8,85.2,74.3,69.4,72.6,67.8,63.2,89,80,65,0.00,40.00,2,-55,4,0.13
2013-8-9,88.1,77.7,71.8,75.7,71.6,68.3,92,82,63,0.00,40.00,2,0,6,0.08
2013-8-10,86.0,76.4,68.2,70.4,62.4,53.5,89,64,42,0.00,40.00,3,-453,6,0.00
2013-8-11,84.3,73.0,62.6,58.1,53.7,50.6,68,52,34,0.00,40.00,0,-994,0,0.00
2013-8-12,86.9,74.9,69.1,66.5,63.1,58.0,81,68,47,0.00,40.00,2,-819,0,0.54
2013-8-13,82.2,73.0,69.6,68.2,65.5,61.9,90,78,60,0.00,40.00,3,-710,4,1.04
2013-8-14,76.3,67.7,59.4,62.0,47.9,43.3,76,50,35,0.00,40.00,6,-53,14,0.00
2013-8-15,80.3,66.9,54.5,51.3,46.2,43.8,71,49,31,0.00,40.00,3,0,6,0.00
2013-8-16,85.2,67.8,57.4,54.3,46.1,-99.9,73,50,30,0.00,40.00,2,0,5,0.00
2013-8-17,86.2,71.5,59.9,56.6,51.6,47.0,69,51,33,0.00,40.00,2,0,4,0.00
2013-8-18,78.4,70.5,65.1,58.4,53.4,49.0,66,55,41,0.00,40.00,0,0,0,0.00
2013-8-19,79.4,70.4,62.8,61.7,57.8,53.6,80,65,47,0.00,40.00,0,0,0,0.00
2013-8-20,89.3,75.5,63.1,66.0,60.6,58.0,84,62,36,0.00,40.00,2,0,6,0.00
2013-8-21,90.3,77.7,66.2,63.6,58.9,53.9,76,55,31,0.00,40.00,3,0,7,0.00
2013-8-22,77.5,73.3,71.1,69.7,65.3,58.1,88,77,58,0.00,40.00,2,0,5,0.29
2013-8-23,83.3,74.4,67.6,68.1,58.6,47.9,89,61,31,0.00,40.00,4,0,10,0.00
2013-8-24,82.9,70.7,61.9,53.0,49.1,45.3,63,47,33,0.00,40.00,2,0,5,0.00
2013-8-25,84.3,70.6,59.2,56.2,51.8,47.1,76,54,33,0.00,40.00,3,0,8,0.00
2013-8-26,83.3,73.5,65.5,62.4,56.1,48.7,70,55,45,0.00,40.00,3,1,6,0.00
2013-8-27,89.7,78.0,70.2,65.8,63.4,60.5,80,63,41,0.00,40.00,3,1,8,0.04
2013-8-28,86.7,74.9,69.4,71.1,66.4,61.9,89,76,59,0.00,40.00,2,0,3,0.20
2013-8-29,82.6,73.6,69.3,69.5,66.1,61.2,91,78,59,0.00,40.00,1,0,3,0.00
2013-8-30,85.4,75.4,69.1,67.7,64.5,61.7,81,70,49,0.00,40.00,3,-8,6,0.00
2013-8-31,88.9,78.4,70.5,73.1,68.0,64.5,82,71,58,0.00,40.00,2,0,5,0.00
2013-9-1,86.9,78.6,72.7,72.6,68.5,64.9,84,72,61,0.00,40.00,2,0,4,0.00
2013-9-2,83.8,76.2,72.1,72.9,69.4,65.5,88,80,68,0.00,40.00,1,0,3,0.13
2013-9-3,83.1,74.6,67.5,69.4,61.4,51.0,91,67,38,0.00,40.00,4,-69,10,0.00
2013-9-4,81.8,70.5,60.1,55.7,52.9,48.6,76,55,38,0.00,40.00,4,-3,9,0.00
2013-9-5,77.9,68.9,59.9,57.7,48.2,36.6,71,50,25,0.00,40.00,4,1,10,0.00
2013-9-6,73.8,62.3,52.3,41.6,38.9,36.5,57,43,26,0.00,40.00,3,-34,6,0.00
2013-9-7,80.0,65.6,50.7,48.2,44.1,38.0,69,48,30,0.00,40.00,3,-248,5,0.00
2013-9-8,81.5,71.2,62.1,59.3,49.4,39.3,64,47,30,0.00,40.00,5,-317,15,0.00
2013-9-9,75.4,64.4,53.4,52.6,44.4,36.8,60,49,41,0.00,40.00,1,-33,4,0.00
2013-9-10,88.3,76.2,66.7,69.9,63.1,52.4,72,64,53,0.00,40.00,3,-16,7,0.00
2013-9-11,95.3,82.8,73.2,75.6,69.6,66.3,83,66,46,0.00,40.00,3,0,7,0.00
2013-9-12,87.6,77.8,69.3,73.5,67.1,62.4,83,70,58,0.00,40.00,4,-21,12,0.37
2013-9-13,75.6,68.3,59.0,64.6,56.0,43.8,90,67,42,0.00,40.00,4,1,9,0.08
2013-9-14,67.4,59.0,51.6,44.4,42.0,38.7,66,54,41,0.00,40.00,4,-107,12,0.00
2013-9-15,72.8,59.5,46.8,46.5,42.5,38.6,74,55,35,0.00,40.00,3,-504,5,0.00
2013-9-16,72.8,62.9,56.7,55.1,49.0,44.3,79,61,40,0.00,40.00,3,-20,9,0.04
2013-9-17,67.5,56.4,47.1,44.9,35.9,32.3,58,47,34,0.00,40.00,2,0,6,0.00
2013-9-18,72.5,58.5,47.6,45.0,41.5,36.3,72,55,34,0.00,40.00,2,0,5,0.00
2013-9-19,77.5,61.7,48.4,49.5,45.5,40.5,75,57,36,0.00,40.00,2,-12,6,0.00
2013-9-20,79.3,64.8,53.2,57.7,51.3,45.8,78,63,44,0.00,40.00,2,0,3,0.00
2013-9-21,80.6,67.0,54.4,64.3,56.2,48.4,82,69,45,0.00,40.00,2,0,6,0.08
2013-9-22,68.7,63.3,54.7,62.1,48.1,37.0,84,60,36,0.00,40.00,6,2,12,0.50
2013-9-23,65.8,56.4,48.8,39.7,37.3,35.3,64,49,35,0.00,40.00,6,1,11,0.00
2013-9-24,73.5,57.8,44.9,42.9,38.4,34.9,69,50,31,0.00,40.00,5,1,9,0.00
2013-9-25,74.2,59.9,48.5,45.5,40.7,35.6,65,50,34,0.00,40.00,3,0,6,0.00
2013-9-26,71.1,60.8,52.3,54.9,49.7,43.1,76,67,54,0.00,40.00,2,0,5,0.00
2013-9-27,68.4,61.6,53.6,52.3,48.1,45.5,75,62,50,0.00,40.00,2,0,5,0.00
2013-9-28,73.4,62.6,53.6,50.9,47.9,45.5,76,60,42,0.00,40.00,2,0,6,0.00
2013-9-29,72.7,60.9,52.3,56.1,49.8,45.9,81,68,50,0.00,40.00,1,0,3,0.00
2013-9-30,75.8,61.2,51.5,52.8,49.0,45.8,86,66,40,0.00,40.00,3,0,4,0.00
2013-10-1,80.3,65.2,52.9,56.7,51.7,46.6,80,63,42,0.00,40.00,4,-12,7,0.00
2013-10-2,83.0,69.2,56.7,59.5,54.4,49.3,78,61,40,0.00,40.00,5,-94,9,0.00
2013-10-3,78.9,68.5,58.5,57.2,53.3,48.7,80,60,35,0.00,40.00,3,-25,5,0.00
2013-10-4,86.2,72.0,61.0,64.2,57.2,51.0,74,61,42,0.00,40.00,4,0,6,0.00
2013-10-5,77.9,70.0,65.1,63.2,60.3,58.4,81,72,59,0.00,40.00,2,0,4,0.00
2013-10-6,69.6,67.6,65.7,65.1,63.1,59.9,89,86,79,0.00,40.00,1,0,3,0.00
2013-10-7,79.7,67.2,57.4,71.3,62.8,51.0,93,86,70,0.00,40.00,6,0,13,0.37
2013-10-8,68.5,58.0,50.2,50.9,44.2,40.4,87,62,36,0.00,40.00,4,0,9,0.00
2013-10-9,63.9,56.7,50.0,45.2,41.8,36.7,64,58,50,0.00,40.00,2,0,6,0.00
2013-10-10,63.2,58.2,53.2,51.2,47.6,42.6,75,68,63,0.00,40.00,2,0,5,0.00
2013-10-11,66.9,63.2,58.1,58.1,53.9,50.0,79,72,67,0.00,40.00,2,0,6,0.04
2013-10-12,72.2,65.4,59.2,54.0,45.0,38.5,67,49,32,0.00,40.00,2,1,7,0.00
2013-10-13,67.3,60.7,55.9,48.9,46.8,44.1,68,60,51,0.00,40.00,2,0,6,0.00
2013-10-14,67.9,56.9,48.0,47.8,44.9,40.8,78,65,48,0.00,40.00,2,0,4,0.00
2013-10-15,70.1,57.7,49.1,53.5,46.7,42.7,86,68,44,0.00,40.00,2,0,4,0.00
2013-10-16,69.6,60.8,52.5,55.7,51.4,44.8,80,72,59,0.00,40.00,1,0,3,0.00
2013-10-17,73.3,65.8,61.2,61.2,58.1,54.9,87,76,61,0.00,40.00,3,0,4,0.00
2013-10-18,67.6,60.8,51.4,60.1,43.2,-99.9,81,54,35,0.00,40.00,6,2,10,0.00
2013-10-19,65.4,46.8,44.6,48.3,21.4,-99.9,73,52,47,0.00,40.00,2,0,4,0.00
2013-10-20,63.2,32.9,46.7,48.2,-18.4,-99.9,73,30,31,0.00,40.00,6,2,12,0.00
2013-10-21,66.8,48.9,41.0,40.2,22.2,-99.9,67,45,36,0.00,40.00,4,-8,8,0.00
2013-10-22,65.5,53.2,44.8,47.7,40.0,32.7,76,61,48,0.00,40.00,5,1,10,0.00
2013-10-23,57.1,48.5,42.1,36.9,32.8,28.9,67,55,41,0.00,40.00,5,-8,8,0.00
2013-10-24,55.6,45.2,37.9,32.1,27.2,22.3,67,50,35,0.00,40.00,6,2,13,0.00
2013-10-25,54.7,44.0,35.6,29.9,24.6,21.2,58,47,32,0.00,40.00,6,-3,12,0.00
2013-10-26,56.1,44.2,33.1,31.7,26.0,22.5,65,50,37,0.00,40.00,4,-58,12,0.00
2013-10-27,58.9,49.8,41.1,31.9,27.7,23.2,53,42,34,0.00,40.00,6,1,11,0.00
2013-10-28,61.3,47.9,35.8,33.3,27.6,22.0,59,46,34,0.00,40.00,5,1,10,0.00
2013-10-29,58.1,48.1,42.0,32.5,27.9,24.7,51,45,37,0.00,40.00,3,0,5,0.00
2013-10-30,60.9,50.7,41.7,44.7,35.8,25.4,71,57,50,0.00,40.00,2,0,4,0.00
2013-10-31,64.6,58.9,48.9,57.6,51.1,41.0,81,75,71,0.00,40.00,3,0,6,0.04
2013-11-1,69.0,64.2,57.0,60.9,55.5,49.3,83,74,57,0.00,40.00,7,1,13,0.20
2013-11-2,68.1,57.8,51.1,50.8,44.8,34.8,83,64,42,0.00,40.00,5,1,9,0.00
2013-11-3,51.6,46.0,35.0,38.2,28.1,15.5,66,50,36,0.00,40.00,6,2,11,0.00
2013-11-4,46.4,38.0,31.3,20.1,16.7,13.5,49,42,32,0.00,40.00,3,1,7,0.00
2013-11-5,56.8,45.9,35.4,36.8,29.4,18.4,68,53,47,0.00,40.00,3,0,5,0.00
2013-11-6,62.8,52.1,40.6,44.6,40.4,33.3,76,65,50,0.00,40.00,3,0,5,0.00
2013-11-7,62.9,53.5,39.0,54.7,44.5,28.2,82,72,51,0.00,40.00,6,1,12,0.08
2013-11-8,48.9,43.2,37.0,31.3,24.7,18.3,66,49,35,0.00,40.00,6,2,14,0.00
2013-11-9,52.0,42.3,31.3,28.2,24.0,19.0,62,49,39,0.00,40.00,4,1,8,0.00
2013-11-10,60.1,47.7,37.6,34.7,28.0,22.4,62,47,34,0.00,40.00,9,3,20,0.00
2013-11-11,54.9,47.5,36.2,29.1,24.3,17.6,48,40,37,0.00,40.00,8,2,16,0.00
2013-11-12,50.7,39.1,30.4,29.7,19.7,11.8,69,45,37,0.00,40.00,7,3,15,0.00
2013-11-13,39.2,32.5,27.5,14.3,12.0,9.7,49,41,29,0.00,40.00,6,2,13,0.00
2013-11-14,53.1,40.0,30.4,22.0,15.7,11.8,46,37,26,0.00,40.00,6,1,12,0.00
2013-11-15,57.0,43.4,33.3,29.5,20.2,12.9,46,39,33,0.00,40.00,3,0,6,0.00
2013-11-16,59.7,49.7,41.3,39.6,33.5,20.4,73,54,40,0.00,40.00,5,0,10,0.00
2013-11-17,61.7,55.6,47.3,53.4,48.0,39.1,83,76,70,0.00,40.00,2,0,3,0.00
2013-11-18,65.1,59.4,50.2,59.3,41.1,22.2,88,54,29,0.00,40.00,7,-6,15,0.16
2013-11-19,50.1,43.7,34.8,24.7,20.3,15.2,44,39,34,0.00,40.00,10,-157,18,0.00
2013-11-20,45.0,36.0,30.5,17.2,13.8,9.4,50,40,28,0.00,40.00,4,-53,9,0.00
2013-11-21,52.7,41.9,28.6,34.4,24.3,12.1,58,48,42,0.00,40.00,4,1,6,0.00
2013-11-22,57.9,52.6,48.8,46.2,41.0,34.4,73,65,58,0.00,40.00,4,1,6,0.04
2013-11-23,54.3,42.6,30.3,45.1,21.7,6.9,75,44,29,0.00,40.00,10,5,19,0.00
2013-11-24,30.3,25.8,22.5,7.8,3.2,0.9,37,33,28,0.00,40.00,12,6,23,0.00
2013-11-25,36.1,28.5,19.4,13.4,8.3,1.8,43,40,36,0.00,40.00,5,2,10,0.00
2013-11-26,46.1,37.2,32.9,38.9,20.0,11.2,76,51,40,0.00,40.00,3,1,6,0.58
2013-11-27,61.0,46.2,34.6,55.9,36.6,-99.9,86,72,43,0.00,40.00,9,4,18,2.08
2013-11-28,35.8,32.0,28.3,14.6,10.9,6.4,45,39,31,0.00,40.00,9,4,22,0.00
2013-11-29,38.9,32.7,27.0,17.1,14.8,11.4,51,45,39,0.00,40.00,5,1,8,0.00
2013-11-30,37.9,31.7,23.4,22.6,15.2,8.3,54,48,42,0.00,40.00,4,1,7,0.00
2013-12-1,49.6,41.3,32.3,30.4,24.9,19.5,61,52,46,0.00,40.00,4,0,6,0.00
2013-12-2,51.2,43.1,37.7,31.5,26.6,22.6,70,52,42,0.00,40.00,2,0,4,0.00
2013-12-3,53.4,42.7,36.1,34.6,29.8,25.6,78,61,47,0.00,40.00,4,1,7,0.00
2013-12-4,52.4,44.7,36.7,40.6,34.0,26.8,72,66,57,0.00,40.00,2,0,4,0.00
2013-12-5,56.8,53.2,48.4,52.7,47.4,40.1,88,81,69,0.00,40.00,2,0,4,0.00
2013-12-6,60.5,49.0,39.3,58.1,44.0,34.4,93,83,76,0.00,40.00,6,1,9,0.79
2013-12-7,41.1,36.9,30.7,34.9,24.9,14.4,86,63,42,0.00,40.00,7,2,13,0.17
2013-12-8,34.7,30.8,27.1,25.3,17.2,13.0,74,55,45,0.00,40.00,4,1,7,0.00
2013-12-9,38.1,34.7,31.5,33.5,28.8,-99.9,86,80,74,0.00,40.00,4,1,7,0.17
2013-12-10,36.1,32.7,25.7,31.5,27.5,18.5,86,80,71,0.00,40.00,4,1,10,0.00
2013-12-11,33.6,28.0,22.8,18.5,16.4,14.0,71,59,46,0.00,40.00,6,2,12,0.00
2013-12-12,28.2,24.3,20.3,14.0,7.3,-99.9,55,45,34,0.00,40.00,6,2,12,0.00
2013-12-13,34.9,26.9,17.6,15.3,10.8,3.9,51,47,41,0.00,40.00,8,1,14,0.00
2013-12-14,30.8,26.4,21.6,26.6,16.9,13.5,83,64,51,0.00,40.00,5,2,10,0.00
2013-12-15,39.6,34.8,31.1,31.9,27.1,19.1,88,74,57,0.00,40.00,6,2,12,0.58
2013-12-16,32.2,27.1,20.5,20.8,11.2,6.3,60,47,36,0.00,40.00,8,3,17,0.00
2013-12-17,32.2,26.7,22.3,24.1,16.9,8.4,75,63,50,0.00,40.00,3,1,8,0.00
2013-12-18,38.1,28.4,21.0,21.0,16.9,13.9,71,60,44,0.00,40.00,7,2,16,0.04
2013-12-19,43.3,32.9,23.2,26.1,20.3,13.2,65,58,50,0.00,40.00,3,0,7,0.13
2013-12-20,49.6,41.2,33.1,32.4,28.3,24.3,71,60,50,0.00,40.00,3,0,6,0.08
2013-12-21,59.5,38.3,40.6,49.0,11.4,-99.9,80,58,59,0.00,40.00,3,0,6,0.00
2013-12-22,69.4,63.4,53.0,60.8,55.4,47.7,86,75,67,0.00,40.00,4,1,11,0.00
2013-12-23,60.3,55.1,41.6,57.6,49.2,27.2,92,81,56,0.00,40.00,7,1,12,0.58
2013-12-24,41.5,35.5,26.1,27.0,17.6,8.2,61,47,39,0.00,40.00,9,3,16,0.00
2013-12-25,29.9,25.2,18.5,12.2,7.8,3.0,46,43,39,0.00,40.00,9,2,14,0.00
2013-12-26,35.9,31.3,26.6,20.8,17.0,11.7,60,53,46,0.00,40.00,5,1,12,0.00
2013-12-27,41.7,32.8,26.2,21.1,17.7,14.2,60,52,41,0.00,40.00,5,1,10,0.00
2013-12-28,54.7,39.4,26.2,29.6,22.0,15.0,61,49,37,0.00,40.00,5,1,11,0.00
2013-12-29,44.8,41.5,38.5,39.2,29.7,21.0,87,64,46,0.00,40.00,6,1,12,1.16
2013-12-30,45.4,35.4,22.6,36.0,22.7,7.0,79,60,42,0.00,40.00,7,-172,13,0.00
2013-12-31,33.1,26.4,20.3,18.4,10.8,6.2,56,48,40,0.00,40.00,8,-2,19,0.00
2014-1-1,34.9,28.9,20.7,16.6,12.4,6.4,53,48,42,0.00,40.00,3,1,6,0.00
2014-1-2,33.2,27.1,17.3,18.8,16.6,12.0,78,62,50,0.00,40.00,5,2,11,0.00